OITR

Urmia Airport

Urmia, Iran
TAF OITR 151110Z 1512/1618 05005MPS 8000 FEW025 BECMG 1515/1517 33004MPS BECMG 1603/1605 04005MPS TEMPO 1604/1608 0405G10MPS BECMG 1615/1617 33004MPS
Issued Valid From Valid To
Aug-15 @ 11:10 UTC
(2 hours ago)
Aug-15 @ 12:00 UTC
(42 minutes ago)
Aug-16 @ 18:00 UTC
(-1 days ago)
Aug-15 @ 12:00 to Aug-15 @ 15:00
TAF OITR 151110Z 1512/1618 05005MPS 8000 FEW025
Wind Visibility Clouds
50° at 10 knots 7,998 meters
  • Few at 2,500' AGL
Becoming Aug-15 @ 15:00 to Aug-16 @ 03:00
BECMG 1515/1517 33004MPS
Wind Visibility Clouds
330° at 8 knots 7,998 meters
  • Few at 2,500' AGL
Becoming Aug-16 @ 03:00 to Aug-16 @ 15:00
BECMG 1603/1605 04005MPS
Wind Visibility Clouds
40° at 10 knots 7,998 meters
  • Few at 2,500' AGL
Temporary Aug-16 @ 04:00 to Aug-16 @ 08:00
TEMPO 1604/1608 0405G10MPS
Becoming Aug-16 @ 15:00 to Aug-16 @ 18:00
BECMG 1615/1617 33004MPS
Wind Visibility Clouds
330° at 8 knots 7,998 meters
  • Few at 2,500' AGL
TAF OITR 151110Z 1512/1618 05005MPS 8000 FEW025 BECMG 1515/1517 33004MPS BECMG 1603/1605 04005MPS TEMPO 1604/1608 0405G10MPS BECMG 1615/1617 33004MPS
Issued Aug-15 @ 11:10 UTC
(2 hours ago)
Valid From Aug-15 @ 12:00 UTC
(42 minutes ago)
Valid To Aug-16 @ 18:00 UTC
(-1 days ago)
Aug-15 @ 12:00 - Aug-15 @ 15:00
Wind Visibility
50° at 10 knots 7,998 meters
Clouds
  • Few at 2,500' AGL
Becoming Aug-15 @ 15:00 - Aug-16 @ 03:00
Wind Visibility
330° at 8 knots 7,998 meters
Clouds
  • Few at 2,500' AGL
Becoming Aug-16 @ 03:00 - Aug-16 @ 15:00
Wind Visibility
40° at 10 knots 7,998 meters
Clouds
  • Few at 2,500' AGL
Temporary Aug-16 @ 04:00 - Aug-16 @ 08:00
Becoming Aug-16 @ 15:00 - Aug-16 @ 18:00
Wind Visibility
330° at 8 knots 7,998 meters
Clouds
  • Few at 2,500' AGL